sensor_id;sensor_type;location;lat;lon;timestamp;pressure;altitude;pressure_sealevel;temperature;humidity
9091;BME280;4581;42.416;25.598;2024-01-27T00:00:50;98798.72;;;3.66;nan
9091;BME280;4581;42.416;25.598;2024-01-27T00:03:17;98806.22;;;3.72;nan
9091;BME280;4581;42.416;25.598;2024-01-27T00:05:44;98800.06;;;3.61;nan
9091;BME280;4581;42.416;25.598;2024-01-27T00:08:11;98796.56;;;3.49;nan
9091;BME280;4581;42.416;25.598;2024-01-27T00:10:38;98800.94;;;3.50;nan
9091;BME280;4581;42.416;25.598;2024-01-27T00:13:05;98809.16;;;3.58;nan
9091;BME280;4581;42.416;25.598;2024-01-27T00:15:31;98808.44;;;3.45;nan
9091;BME280;4581;42.416;25.598;2024-01-27T00:17:58;98810.16;;;3.46;nan
9091;BME280;4581;42.416;25.598;2024-01-27T00:20:25;98814.50;;;3.47;nan
9091;BME280;4581;42.416;25.598;2024-01-27T00:22:52;98818.91;;;3.26;nan
9091;BME280;4581;42.416;25.598;2024-01-27T00:25:19;98822.53;;;3.36;nan
9091;BME280;4581;42.416;25.598;2024-01-27T00:27:46;98823.75;;;3.32;nan
9091;BME280;4581;42.416;25.598;2024-01-27T00:30:12;98807.41;;;3.14;nan
9091;BME280;4581;42.416;25.598;2024-01-27T00:32:40;98815.00;;;3.30;nan
9091;BME280;4581;42.416;25.598;2024-01-27T00:35:07;98812.38;;;3.19;nan
9091;BME280;4581;42.416;25.598;2024-01-27T00:37:35;98809.97;;;3.16;nan
9091;BME280;4581;42.416;25.598;2024-01-27T00:40:01;98822.31;;;3.17;nan
9091;BME280;4581;42.416;25.598;2024-01-27T00:42:28;98817.94;;;3.16;nan
9091;BME280;4581;42.416;25.598;2024-01-27T00:44:55;98823.13;;;3.17;nan
9091;BME280;4581;42.416;25.598;2024-01-27T00:47:22;98818.19;;;3.13;nan
9091;BME280;4581;42.416;25.598;2024-01-27T00:49:49;98809.97;;;3.16;nan
9091;BME280;4581;42.416;25.598;2024-01-27T00:52:16;98816.59;;;3.21;nan
9091;BME280;4581;42.416;25.598;2024-01-27T00:54:42;98815.63;;;3.22;nan
9091;BME280;4581;42.416;25.598;2024-01-27T00:57:09;98820.22;;;3.32;nan
9091;BME280;4581;42.416;25.598;2024-01-27T00:59:36;98804.63;;;3.27;nan
9091;BME280;4581;42.416;25.598;2024-01-27T01:02:03;98802.56;;;3.19;nan
9091;BME280;4581;42.416;25.598;2024-01-27T01:04:30;98788.53;;;3.28;nan
9091;BME280;4581;42.416;25.598;2024-01-27T01:06:57;98786.31;;;3.34;nan
9091;BME280;4581;42.416;25.598;2024-01-27T01:09:24;98779.75;;;3.38;nan
9091;BME280;4581;42.416;25.598;2024-01-27T01:11:51;98786.41;;;3.43;nan
9091;BME280;4581;42.416;25.598;2024-01-27T01:14:18;98771.16;;;3.34;nan
9091;BME280;4581;42.416;25.598;2024-01-27T01:16:45;98767.66;;;3.34;nan
9091;BME280;4581;42.416;25.598;2024-01-27T01:19:11;98765.34;;;3.29;nan
9091;BME280;4581;42.416;25.598;2024-01-27T01:21:38;98757.16;;;3.21;nan
9091;BME280;4581;42.416;25.598;2024-01-27T01:24:05;98756.66;;;3.27;nan
9091;BME280;4581;42.416;25.598;2024-01-27T01:26:32;98757.63;;;3.26;nan
9091;BME280;4581;42.416;25.598;2024-01-27T01:28:58;98757.63;;;3.26;nan
9091;BME280;4581;42.416;25.598;2024-01-27T01:31:25;98765.88;;;3.23;nan
9091;BME280;4581;42.416;25.598;2024-01-27T01:33:52;98766.50;;;3.15;nan
9091;BME280;4581;42.416;25.598;2024-01-27T01:36:19;98761.06;;;3.17;nan
9091;BME280;4581;42.416;25.598;2024-01-27T01:38:46;98763.09;;;3.13;nan
9091;BME280;4581;42.416;25.598;2024-01-27T01:41:12;98758.28;;;3.07;nan
9091;BME280;4581;42.416;25.598;2024-01-27T01:43:39;98763.25;;;3.01;nan
9091;BME280;4581;42.416;25.598;2024-01-27T01:46:07;98774.38;;;2.95;nan
9091;BME280;4581;42.416;25.598;2024-01-27T01:48:34;98762.91;;;2.72;nan
9091;BME280;4581;42.416;25.598;2024-01-27T01:51:01;98754.53;;;2.54;nan
9091;BME280;4581;42.416;25.598;2024-01-27T01:53:29;98761.31;;;2.58;nan
9091;BME280;4581;42.416;25.598;2024-01-27T01:55:55;98751.84;;;2.43;nan
9091;BME280;4581;42.416;25.598;2024-01-27T01:58:22;98752.97;;;2.41;nan
9091;BME280;4581;42.416;25.598;2024-01-27T02:00:49;98744.38;;;2.48;nan
9091;BME280;4581;42.416;25.598;2024-01-27T02:03:16;98741.56;;;2.50;nan
9091;BME280;4581;42.416;25.598;2024-01-27T02:05:43;98743.53;;;2.37;nan
9091;BME280;4581;42.416;25.598;2024-01-27T02:08:10;98734.56;;;2.38;nan
9091;BME280;4581;42.416;25.598;2024-01-27T02:10:37;98730.81;;;2.40;nan
9091;BME280;4581;42.416;25.598;2024-01-27T02:13:04;98728.28;;;2.39;nan
9091;BME280;4581;42.416;25.598;2024-01-27T02:15:42;98724.91;;;2.48;nan
9091;BME280;4581;42.416;25.598;2024-01-27T02:18:08;98725.50;;;2.40;nan
9091;BME280;4581;42.416;25.598;2024-01-27T02:20:35;98718.25;;;2.42;nan
9091;BME280;4581;42.416;25.598;2024-01-27T02:23:04;98727.19;;;2.41;nan
9091;BME280;4581;42.416;25.598;2024-01-27T02:25:34;98731.78;;;2.39;nan
9091;BME280;4581;42.416;25.598;2024-01-27T02:28:02;98719.34;;;2.40;nan
9091;BME280;4581;42.416;25.598;2024-01-27T02:30:31;98729.13;;;2.39;nan
9091;BME280;4581;42.416;25.598;2024-01-27T02:32:58;98711.59;;;2.48;nan
9091;BME280;4581;42.416;25.598;2024-01-27T02:35:25;98716.66;;;2.51;nan
9091;BME280;4581;42.416;25.598;2024-01-27T02:37:52;98727.66;;;2.46;nan
9091;BME280;4581;42.416;25.598;2024-01-27T02:40:19;98724.31;;;2.44;nan
9091;BME280;4581;42.416;25.598;2024-01-27T02:42:46;98739.41;;;2.44;nan
9091;BME280;4581;42.416;25.598;2024-01-27T02:45:13;98741.69;;;2.37;nan
9091;BME280;4581;42.416;25.598;2024-01-27T02:47:40;98745.69;;;2.43;nan
9091;BME280;4581;42.416;25.598;2024-01-27T02:50:07;98747.00;;;2.37;nan
9091;BME280;4581;42.416;25.598;2024-01-27T02:52:34;98735.53;;;2.37;nan
9091;BME280;4581;42.416;25.598;2024-01-27T02:55:01;98738.31;;;2.35;nan
9091;BME280;4581;42.416;25.598;2024-01-27T02:57:28;98735.41;;;2.38;nan
9091;BME280;4581;42.416;25.598;2024-01-27T02:59:55;98730.56;;;2.43;nan
9091;BME280;4581;42.416;25.598;2024-01-27T03:02:22;98725.75;;;2.48;nan
9091;BME280;4581;42.416;25.598;2024-01-27T03:04:48;98718.00;;;2.45;nan
9091;BME280;4581;42.416;25.598;2024-01-27T03:07:15;98737.72;;;2.54;nan
9091;BME280;4581;42.416;25.598;2024-01-27T03:09:42;98731.56;;;2.64;nan
9091;BME280;4581;42.416;25.598;2024-01-27T03:12:09;98733.84;;;2.80;nan
9091;BME280;4581;42.416;25.598;2024-01-27T03:14:35;98728.16;;;2.96;nan
9091;BME280;4581;42.416;25.598;2024-01-27T03:17:02;98721.00;;;3.07;nan
9091;BME280;4581;42.416;25.598;2024-01-27T03:19:29;98716.47;;;3.19;nan
9091;BME280;4581;42.416;25.598;2024-01-27T03:21:56;98723.22;;;3.34;nan
9091;BME280;4581;42.416;25.598;2024-01-27T03:24:23;98715.53;;;3.52;nan
9091;BME280;4581;42.416;25.598;2024-01-27T03:26:50;98713.09;;;3.60;nan
9091;BME280;4581;42.416;25.598;2024-01-27T03:29:16;98715.59;;;3.61;nan
9091;BME280;4581;42.416;25.598;2024-01-27T03:31:43;98717.97;;;3.75;nan
9091;BME280;4581;42.416;25.598;2024-01-27T03:34:10;98715.69;;;3.71;nan
9091;BME280;4581;42.416;25.598;2024-01-27T03:36:37;98714.72;;;3.72;nan
9091;BME280;4581;42.416;25.598;2024-01-27T03:39:04;98706.38;;;3.65;nan
9091;BME280;4581;42.416;25.598;2024-01-27T03:41:32;98695.50;;;3.57;nan
9091;BME280;4581;42.416;25.598;2024-01-27T03:43:58;98704.44;;;3.67;nan
9091;BME280;4581;42.416;25.598;2024-01-27T03:46:25;98694.91;;;3.65;nan
9091;BME280;4581;42.416;25.598;2024-01-27T03:48:52;98681.16;;;3.69;nan
9091;BME280;4581;42.416;25.598;2024-01-27T03:51:19;98680.25;;;3.59;nan
9091;BME280;4581;42.416;25.598;2024-01-27T03:53:45;98672.66;;;3.75;nan
9091;BME280;4581;42.416;25.598;2024-01-27T03:56:12;98671.31;;;3.81;nan
9091;BME280;4581;42.416;25.598;2024-01-27T03:58:39;98683.44;;;3.95;nan
9091;BME280;4581;42.416;25.598;2024-01-27T04:01:06;98673.44;;;3.87;nan
9091;BME280;4581;42.416;25.598;2024-01-27T04:03:33;98672.59;;;3.87;nan
9091;BME280;4581;42.416;25.598;2024-01-27T04:06:00;98691.75;;;4.01;nan
9091;BME280;4581;42.416;25.598;2024-01-27T04:08:30;98704.59;;;3.87;nan
9091;BME280;4581;42.416;25.598;2024-01-27T04:10:57;98693.25;;;3.73;nan
9091;BME280;4581;42.416;25.598;2024-01-27T04:13:24;98685.41;;;3.72;nan
9091;BME280;4581;42.416;25.598;2024-01-27T04:15:51;98696.38;;;3.78;nan
9091;BME280;4581;42.416;25.598;2024-01-27T04:18:20;98690.59;;;3.73;nan
9091;BME280;4581;42.416;25.598;2024-01-27T04:20:47;98683.81;;;3.69;nan
9091;BME280;4581;42.416;25.598;2024-01-27T04:23:15;98684.44;;;3.73;nan
9091;BME280;4581;42.416;25.598;2024-01-27T04:25:43;98686.75;;;3.66;nan
9091;BME280;4581;42.416;25.598;2024-01-27T04:28:10;98691.81;;;3.69;nan
9091;BME280;4581;42.416;25.598;2024-01-27T04:30:39;98675.97;;;3.68;nan
9091;BME280;4581;42.416;25.598;2024-01-27T04:33:06;98686.63;;;3.68;nan
9091;BME280;4581;42.416;25.598;2024-01-27T04:35:34;98679.47;;;3.68;nan
9091;BME280;4581;42.416;25.598;2024-01-27T04:38:01;98679.72;;;3.65;nan
9091;BME280;4581;42.416;25.598;2024-01-27T04:40:28;98682.25;;;3.67;nan
9091;BME280;4581;42.416;25.598;2024-01-27T04:42:55;98670.81;;;3.55;nan
9091;BME280;4581;42.416;25.598;2024-01-27T04:45:22;98664.63;;;3.55;nan
9091;BME280;4581;42.416;25.598;2024-01-27T04:47:49;98660.91;;;3.46;nan
9091;BME280;4581;42.416;25.598;2024-01-27T04:50:15;98648.44;;;3.47;nan
9091;BME280;4581;42.416;25.598;2024-01-27T04:52:42;98645.50;;;3.50;nan
9091;BME280;4581;42.416;25.598;2024-01-27T04:55:09;98641.03;;;3.50;nan
9091;BME280;4581;42.416;25.598;2024-01-27T04:57:36;98644.91;;;3.46;nan
9091;BME280;4581;42.416;25.598;2024-01-27T05:00:03;98650.78;;;3.40;nan
9091;BME280;4581;42.416;25.598;2024-01-27T05:02:33;98645.81;;;3.36;nan
9091;BME280;4581;42.416;25.598;2024-01-27T05:05:01;98650.31;;;3.35;nan
9091;BME280;4581;42.416;25.598;2024-01-27T05:07:29;98642.63;;;3.42;nan
9091;BME280;4581;42.416;25.598;2024-01-27T05:09:56;98653.28;;;3.53;nan
9091;BME280;4581;42.416;25.598;2024-01-27T05:12:23;98651.69;;;3.50;nan
9091;BME280;4581;42.416;25.598;2024-01-27T05:14:50;98653.66;;;3.48;nan
9091;BME280;4581;42.416;25.598;2024-01-27T05:17:17;98657.53;;;3.44;nan
9091;BME280;4581;42.416;25.598;2024-01-27T05:19:43;98658.25;;;3.46;nan
9091;BME280;4581;42.416;25.598;2024-01-27T05:22:11;98668.22;;;3.44;nan
9091;BME280;4581;42.416;25.598;2024-01-27T05:24:38;98666.50;;;3.43;nan
9091;BME280;4581;42.416;25.598;2024-01-27T05:27:04;98658.19;;;3.37;nan
9091;BME280;4581;42.416;25.598;2024-01-27T05:29:31;98664.75;;;3.33;nan
9091;BME280;4581;42.416;25.598;2024-01-27T05:31:58;98668.63;;;3.28;nan
9091;BME280;4581;42.416;25.598;2024-01-27T05:34:25;98668.88;;;3.25;nan
9091;BME280;4581;42.416;25.598;2024-01-27T05:36:51;98665.50;;;3.23;nan
9091;BME280;4581;42.416;25.598;2024-01-27T05:39:18;98667.41;;;3.33;nan
9091;BME280;4581;42.416;25.598;2024-01-27T05:41:45;98673.22;;;3.26;nan
9091;BME280;4581;42.416;25.598;2024-01-27T05:44:12;98662.19;;;3.31;nan
9091;BME280;4581;42.416;25.598;2024-01-27T05:46:39;98656.59;;;3.34;nan
9091;BME280;4581;42.416;25.598;2024-01-27T05:49:06;98660.22;;;3.44;nan
9091;BME280;4581;42.416;25.598;2024-01-27T05:51:32;98652.06;;;3.46;nan
9091;BME280;4581;42.416;25.598;2024-01-27T05:54:00;98663.94;;;3.53;nan
9091;BME280;4581;42.416;25.598;2024-01-27T05:56:27;98676.63;;;3.60;nan
9091;BME280;4581;42.416;25.598;2024-01-27T05:58:53;98674.81;;;3.50;nan
9091;BME280;4581;42.416;25.598;2024-01-27T06:01:20;98670.59;;;3.47;nan
9091;BME280;4581;42.416;25.598;2024-01-27T06:03:47;98673.75;;;3.52;nan
9091;BME280;4581;42.416;25.598;2024-01-27T06:06:14;98669.31;;;3.62;nan
9091;BME280;4581;42.416;25.598;2024-01-27T06:08:41;98671.72;;;3.65;nan
9091;BME280;4581;42.416;25.598;2024-01-27T06:11:08;98674.47;;;3.75;nan
9091;BME280;4581;42.416;25.598;2024-01-27T06:13:36;98677.66;;;3.90;nan
9091;BME280;4581;42.416;25.598;2024-01-27T06:16:08;98666.59;;;3.94;nan
9091;BME280;4581;42.416;25.598;2024-01-27T06:18:37;98690.59;;;3.94;nan
9091;BME280;4581;42.416;25.598;2024-01-27T06:21:05;98691.06;;;3.99;nan
9091;BME280;4581;42.416;25.598;2024-01-27T06:23:32;98701.34;;;4.04;nan
9091;BME280;4581;42.416;25.598;2024-01-27T06:25:59;98693.06;;;4.07;nan
9091;BME280;4581;42.416;25.598;2024-01-27T06:28:26;98693.06;;;4.28;nan
9091;BME280;4581;42.416;25.598;2024-01-27T06:30:54;98670.47;;;4.32;nan
9091;BME280;4581;42.416;25.598;2024-01-27T06:33:20;98675.59;;;4.44;nan
9091;BME280;4581;42.416;25.598;2024-01-27T06:35:50;98666.91;;;4.52;nan
9091;BME280;4581;42.416;25.598;2024-01-27T06:38:17;98657.09;;;4.62;nan
9091;BME280;4581;42.416;25.598;2024-01-27T06:40:44;98656.41;;;4.69;nan
9091;BME280;4581;42.416;25.598;2024-01-27T06:43:12;98663.50;;;4.80;nan
9091;BME280;4581;42.416;25.598;2024-01-27T06:45:42;98657.06;;;4.92;nan
9091;BME280;4581;42.416;25.598;2024-01-27T06:48:09;98650.31;;;4.98;nan
9091;BME280;4581;42.416;25.598;2024-01-27T06:50:36;98646.25;;;5.03;nan
9091;BME280;4581;42.416;25.598;2024-01-27T06:53:03;98641.75;;;5.04;nan
9091;BME280;4581;42.416;25.598;2024-01-27T06:55:30;98654.00;;;5.06;nan
9091;BME280;4581;42.416;25.598;2024-01-27T06:57:56;98648.69;;;5.16;nan
9091;BME280;4581;42.416;25.598;2024-01-27T07:00:23;98646.13;;;5.14;nan
9091;BME280;4581;42.416;25.598;2024-01-27T07:02:50;98641.25;;;5.29;nan
9091;BME280;4581;42.416;25.598;2024-01-27T07:05:17;98643.91;;;5.29;nan
9091;BME280;4581;42.416;25.598;2024-01-27T07:07:44;98644.47;;;5.33;nan
9091;BME280;4581;42.416;25.598;2024-01-27T07:10:11;98655.97;;;5.14;nan
9091;BME280;4581;42.416;25.598;2024-01-27T07:12:37;98660.44;;;4.94;nan
9091;BME280;4581;42.416;25.598;2024-01-27T07:15:05;98659.53;;;4.75;nan
9091;BME280;4581;42.416;25.598;2024-01-27T07:17:32;98655.03;;;4.75;nan
9091;BME280;4581;42.416;25.598;2024-01-27T07:19:59;98645.78;;;4.79;nan
9091;BME280;4581;42.416;25.598;2024-01-27T07:22:26;98648.56;;;4.78;nan
9091;BME280;4581;42.416;25.598;2024-01-27T07:24:53;98643.69;;;4.83;nan
9091;BME280;4581;42.416;25.598;2024-01-27T07:27:20;98635.81;;;4.91;nan
9091;BME280;4581;42.416;25.598;2024-01-27T07:29:47;98646.91;;;4.86;nan
9091;BME280;4581;42.416;25.598;2024-01-27T07:32:13;98638.78;;;4.88;nan
9091;BME280;4581;42.416;25.598;2024-01-27T07:34:44;98633.16;;;4.91;nan
9091;BME280;4581;42.416;25.598;2024-01-27T07:37:11;98628.94;;;4.88;nan
9091;BME280;4581;42.416;25.598;2024-01-27T07:39:38;98636.50;;;4.83;nan
9091;BME280;4581;42.416;25.598;2024-01-27T07:42:05;98643.72;;;4.92;nan
9091;BME280;4581;42.416;25.598;2024-01-27T07:44:32;98650.16;;;4.90;nan
9091;BME280;4581;42.416;25.598;2024-01-27T07:46:58;98632.63;;;4.97;nan
9091;BME280;4581;42.416;25.598;2024-01-27T07:49:25;98641.19;;;5.00;nan
9091;BME280;4581;42.416;25.598;2024-01-27T07:51:52;98637.41;;;5.03;nan
9091;BME280;4581;42.416;25.598;2024-01-27T07:54:18;98638.53;;;5.10;nan
9091;BME280;4581;42.416;25.598;2024-01-27T07:56:45;98636.28;;;5.15;nan
9091;BME280;4581;42.416;25.598;2024-01-27T07:59:12;98635.44;;;5.14;nan
9091;BME280;4581;42.416;25.598;2024-01-27T08:01:41;98642.19;;;5.18;nan
9091;BME280;4581;42.416;25.598;2024-01-27T08:04:08;98637.16;;;5.25;nan
9091;BME280;4581;42.416;25.598;2024-01-27T08:06:46;98640.53;;;5.17;nan
9091;BME280;4581;42.416;25.598;2024-01-27T08:09:13;98643.19;;;5.08;nan
9091;BME280;4581;42.416;25.598;2024-01-27T08:11:40;98659.88;;;4.91;nan
9091;BME280;4581;42.416;25.598;2024-01-27T08:14:07;98642.59;;;4.45;nan
9091;BME280;4581;42.416;25.598;2024-01-27T08:16:34;98628.06;;;4.38;nan
9091;BME280;4581;42.416;25.598;2024-01-27T08:19:01;98638.16;;;4.25;nan
9091;BME280;4581;42.416;25.598;2024-01-27T08:21:28;98634.63;;;4.24;nan
9091;BME280;4581;42.416;25.598;2024-01-27T08:23:55;98646.97;;;4.25;nan
9091;BME280;4581;42.416;25.598;2024-01-27T08:26:22;98639.75;;;4.37;nan
9091;BME280;4581;42.416;25.598;2024-01-27T08:28:48;98638.78;;;4.48;nan
9091;BME280;4581;42.416;25.598;2024-01-27T08:31:15;98642.03;;;4.51;nan
9091;BME280;4581;42.416;25.598;2024-01-27T08:33:42;98652.34;;;4.65;nan
9091;BME280;4581;42.416;25.598;2024-01-27T08:36:13;98655.44;;;4.70;nan
9091;BME280;4581;42.416;25.598;2024-01-27T08:38:40;98648.00;;;4.74;nan
9091;BME280;4581;42.416;25.598;2024-01-27T08:41:07;98641.88;;;4.93;nan
9091;BME280;4581;42.416;25.598;2024-01-27T08:43:34;98631.50;;;5.09;nan
9091;BME280;4581;42.416;25.598;2024-01-27T08:46:01;98631.09;;;5.33;nan
9091;BME280;4581;42.416;25.598;2024-01-27T08:48:28;98636.19;;;5.45;nan
9091;BME280;4581;42.416;25.598;2024-01-27T08:50:55;98639.13;;;5.61;nan
9091;BME280;4581;42.416;25.598;2024-01-27T08:53:22;98649.38;;;5.66;nan
9091;BME280;4581;42.416;25.598;2024-01-27T08:55:48;98640.53;;;5.65;nan
9091;BME280;4581;42.416;25.598;2024-01-27T08:58:15;98647.13;;;5.71;nan
9091;BME280;4581;42.416;25.598;2024-01-27T09:00:42;98646.72;;;5.76;nan
9091;BME280;4581;42.416;25.598;2024-01-27T09:03:09;98655.16;;;5.81;nan
9091;BME280;4581;42.416;25.598;2024-01-27T09:05:36;98665.84;;;5.81;nan
9091;BME280;4581;42.416;25.598;2024-01-27T09:08:03;98667.84;;;5.88;nan
9091;BME280;4581;42.416;25.598;2024-01-27T09:10:30;98656.97;;;5.90;nan
9091;BME280;4581;42.416;25.598;2024-01-27T09:12:56;98660.81;;;5.97;nan
9091;BME280;4581;42.416;25.598;2024-01-27T09:15:23;98644.31;;;6.01;nan
9091;BME280;4581;42.416;25.598;2024-01-27T09:17:50;98654.56;;;6.06;nan
9091;BME280;4581;42.416;25.598;2024-01-27T09:20:17;98646.41;;;6.17;nan
9091;BME280;4581;42.416;25.598;2024-01-27T09:22:44;98636.78;;;6.24;nan
9091;BME280;4581;42.416;25.598;2024-01-27T09:25:13;98623.75;;;6.39;nan
9091;BME280;4581;42.416;25.598;2024-01-27T09:27:41;98623.31;;;6.43;nan
9091;BME280;4581;42.416;25.598;2024-01-27T09:30:08;98624.78;;;6.38;nan
9091;BME280;4581;42.416;25.598;2024-01-27T09:32:35;98621.19;;;6.47;nan
9091;BME280;4581;42.416;25.598;2024-01-27T09:35:02;98625.13;;;6.52;nan
9091;BME280;4581;42.416;25.598;2024-01-27T09:37:29;98618.88;;;6.62;nan
9091;BME280;4581;42.416;25.598;2024-01-27T09:39:57;98627.41;;;6.75;nan
9091;BME280;4581;42.416;25.598;2024-01-27T09:42:24;98635.53;;;6.83;nan
9091;BME280;4581;42.416;25.598;2024-01-27T09:44:52;98636.88;;;6.69;nan
9091;BME280;4581;42.416;25.598;2024-01-27T09:47:20;98644.22;;;6.30;nan
9091;BME280;4581;42.416;25.598;2024-01-27T09:49:47;98650.78;;;5.99;nan
9091;BME280;4581;42.416;25.598;2024-01-27T09:52:15;98650.22;;;5.66;nan
9091;BME280;4581;42.416;25.598;2024-01-27T09:54:42;98659.22;;;5.75;nan
9091;BME280;4581;42.416;25.598;2024-01-27T09:57:10;98670.63;;;5.58;nan
9091;BME280;4581;42.416;25.598;2024-01-27T09:59:43;98659.50;;;5.24;nan
9091;BME280;4581;42.416;25.598;2024-01-27T10:02:11;98658.56;;;5.44;nan
9091;BME280;4581;42.416;25.598;2024-01-27T10:04:41;98646.88;;;5.45;nan
9091;BME280;4581;42.416;25.598;2024-01-27T10:07:09;98648.41;;;5.77;nan
9091;BME280;4581;42.416;25.598;2024-01-27T10:09:39;98645.00;;;5.94;nan
9091;BME280;4581;42.416;25.598;2024-01-27T10:12:10;98637.28;;;6.00;nan
9091;BME280;4581;42.416;25.598;2024-01-27T10:14:39;98630.88;;;6.21;nan
9091;BME280;4581;42.416;25.598;2024-01-27T10:17:10;98619.91;;;6.78;nan
9091;BME280;4581;42.416;25.598;2024-01-27T10:19:37;98622.06;;;7.37;nan
9091;BME280;4581;42.416;25.598;2024-01-27T10:22:09;98621.28;;;7.63;nan
9091;BME280;4581;42.416;25.598;2024-01-27T10:24:35;98617.09;;;7.25;nan
9091;BME280;4581;42.416;25.598;2024-01-27T10:27:03;98624.41;;;7.05;nan
9091;BME280;4581;42.416;25.598;2024-01-27T10:29:30;98626.69;;;7.00;nan
9091;BME280;4581;42.416;25.598;2024-01-27T10:32:07;98626.50;;;6.84;nan
9091;BME280;4581;42.416;25.598;2024-01-27T10:34:35;98622.00;;;6.84;nan
9091;BME280;4581;42.416;25.598;2024-01-27T10:37:02;98618.38;;;6.76;nan
9091;BME280;4581;42.416;25.598;2024-01-27T10:39:29;98620.00;;;6.59;nan
9091;BME280;4581;42.416;25.598;2024-01-27T10:41:58;98610.09;;;6.69;nan
9091;BME280;4581;42.416;25.598;2024-01-27T10:44:28;98603.06;;;6.68;nan
9091;BME280;4581;42.416;25.598;2024-01-27T10:46:56;98611.72;;;6.80;nan
9091;BME280;4581;42.416;25.598;2024-01-27T10:49:28;98603.91;;;6.69;nan
9091;BME280;4581;42.416;25.598;2024-01-27T10:51:59;98610.13;;;6.59;nan
9091;BME280;4581;42.416;25.598;2024-01-27T10:54:29;98607.97;;;6.73;nan
9091;BME280;4581;42.416;25.598;2024-01-27T10:56:57;98603.81;;;6.78;nan
9091;BME280;4581;42.416;25.598;2024-01-27T10:59:29;98607.16;;;6.90;nan
9091;BME280;4581;42.416;25.598;2024-01-27T11:01:57;98624.69;;;6.84;nan
9091;BME280;4581;42.416;25.598;2024-01-27T11:04:24;98627.84;;;6.70;nan
9091;BME280;4581;42.416;25.598;2024-01-27T11:06:52;98627.44;;;6.38;nan
9091;BME280;4581;42.416;25.598;2024-01-27T11:09:20;98636.56;;;6.45;nan
9091;BME280;4581;42.416;25.598;2024-01-27T11:11:48;98639.56;;;6.42;nan
9091;BME280;4581;42.416;25.598;2024-01-27T11:14:15;98633.06;;;6.44;nan
9091;BME280;4581;42.416;25.598;2024-01-27T11:16:42;98628.56;;;6.35;nan
9091;BME280;4581;42.416;25.598;2024-01-27T11:19:17;98621.88;;;6.22;nan
9091;BME280;4581;42.416;25.598;2024-01-27T11:21:44;98625.09;;;6.25;nan
9091;BME280;4581;42.416;25.598;2024-01-27T11:24:14;98618.78;;;6.17;nan
9091;BME280;4581;42.416;25.598;2024-01-27T11:26:41;98608.91;;;6.17;nan
9091;BME280;4581;42.416;25.598;2024-01-27T11:29:11;98606.63;;;6.22;nan
9091;BME280;4581;42.416;25.598;2024-01-27T11:31:48;98601.38;;;6.30;nan
9091;BME280;4581;42.416;25.598;2024-01-27T11:34:17;98586.03;;;6.32;nan
9091;BME280;4581;42.416;25.598;2024-01-27T11:36:45;98582.31;;;6.43;nan
9091;BME280;4581;42.416;25.598;2024-01-27T11:39:25;98587.09;;;6.49;nan
9091;BME280;4581;42.416;25.598;2024-01-27T11:41:53;98597.81;;;6.39;nan
9091;BME280;4581;42.416;25.598;2024-01-27T11:44:20;98609.41;;;6.30;nan
9091;BME280;4581;42.416;25.598;2024-01-27T11:46:47;98618.72;;;6.26;nan
9091;BME280;4581;42.416;25.598;2024-01-27T11:49:17;98624.69;;;6.20;nan
9091;BME280;4581;42.416;25.598;2024-01-27T11:51:44;98611.47;;;6.09;nan
9091;BME280;4581;42.416;25.598;2024-01-27T11:54:11;98606.28;;;5.98;nan
9091;BME280;4581;42.416;25.598;2024-01-27T11:56:39;98607.84;;;6.00;nan
9091;BME280;4581;42.416;25.598;2024-01-27T11:59:06;98597.16;;;5.91;nan
9091;BME280;4581;42.416;25.598;2024-01-27T12:01:33;98595.41;;;6.09;nan
9091;BME280;4581;42.416;25.598;2024-01-27T12:04:07;98600.78;;;6.09;nan
9091;BME280;4581;42.416;25.598;2024-01-27T12:06:35;98598.22;;;6.17;nan
9091;BME280;4581;42.416;25.598;2024-01-27T12:09:03;98600.41;;;6.31;nan
9091;BME280;4581;42.416;25.598;2024-01-27T12:11:30;98608.81;;;6.46;nan
9091;BME280;4581;42.416;25.598;2024-01-27T12:13:57;98597.72;;;6.58;nan
9091;BME280;4581;42.416;25.598;2024-01-27T12:16:25;98609.94;;;6.71;nan
9091;BME280;4581;42.416;25.598;2024-01-27T12:18:52;98613.41;;;6.81;nan
9091;BME280;4581;42.416;25.598;2024-01-27T12:21:21;98613.72;;;6.78;nan
9091;BME280;4581;42.416;25.598;2024-01-27T12:23:57;98626.06;;;6.88;nan
9091;BME280;4581;42.416;25.598;2024-01-27T12:26:30;98623.06;;;6.74;nan
9091;BME280;4581;42.416;25.598;2024-01-27T12:28:57;98625.63;;;6.66;nan
9091;BME280;4581;42.416;25.598;2024-01-27T12:31:25;98636.72;;;6.71;nan
9091;BME280;4581;42.416;25.598;2024-01-27T12:33:55;98636.19;;;6.67;nan
9091;BME280;4581;42.416;25.598;2024-01-27T12:36:22;98634.13;;;6.51;nan
9091;BME280;4581;42.416;25.598;2024-01-27T12:39:01;98632.19;;;6.53;nan
9091;BME280;4581;42.416;25.598;2024-01-27T12:41:30;98632.44;;;6.50;nan
9091;BME280;4581;42.416;25.598;2024-01-27T12:43:59;98635.44;;;6.47;nan
9091;BME280;4581;42.416;25.598;2024-01-27T12:46:29;98641.50;;;6.49;nan
9091;BME280;4581;42.416;25.598;2024-01-27T12:48:56;98648.16;;;6.73;nan
9091;BME280;4581;42.416;25.598;2024-01-27T12:51:23;98654.59;;;6.80;nan
9091;BME280;4581;42.416;25.598;2024-01-27T12:53:51;98661.34;;;6.84;nan
9091;BME280;4581;42.416;25.598;2024-01-27T12:56:18;98666.56;;;6.85;nan
9091;BME280;4581;42.416;25.598;2024-01-27T12:58:44;98659.41;;;6.76;nan
9091;BME280;4581;42.416;25.598;2024-01-27T13:01:11;98672.88;;;6.94;nan
9091;BME280;4581;42.416;25.598;2024-01-27T13:03:38;98660.81;;;7.25;nan
9091;BME280;4581;42.416;25.598;2024-01-27T13:06:09;98689.13;;;7.55;nan
9091;BME280;4581;42.416;25.598;2024-01-27T13:08:37;98686.44;;;7.73;nan
9091;BME280;4581;42.416;25.598;2024-01-27T13:11:04;98673.41;;;7.78;nan
9091;BME280;4581;42.416;25.598;2024-01-27T13:13:31;98676.47;;;7.83;nan
9091;BME280;4581;42.416;25.598;2024-01-27T13:15:57;98690.25;;;7.88;nan
9091;BME280;4581;42.416;25.598;2024-01-27T13:18:24;98668.78;;;7.88;nan
9091;BME280;4581;42.416;25.598;2024-01-27T13:20:51;98688.19;;;7.99;nan
9091;BME280;4581;42.416;25.598;2024-01-27T13:23:18;98688.88;;;8.02;nan
9091;BME280;4581;42.416;25.598;2024-01-27T13:25:45;98681.13;;;7.98;nan
9091;BME280;4581;42.416;25.598;2024-01-27T13:28:23;98690.41;;;8.04;nan
9091;BME280;4581;42.416;25.598;2024-01-27T13:30:50;98685.09;;;8.30;nan
9091;BME280;4581;42.416;25.598;2024-01-27T13:33:16;98687.06;;;8.28;nan
9091;BME280;4581;42.416;25.598;2024-01-27T13:35:44;98699.19;;;8.32;nan
9091;BME280;4581;42.416;25.598;2024-01-27T13:38:13;98687.47;;;8.33;nan
9091;BME280;4581;42.416;25.598;2024-01-27T13:40:41;98697.56;;;8.39;nan
9091;BME280;4581;42.416;25.598;2024-01-27T13:43:08;98701.94;;;8.40;nan
9091;BME280;4581;42.416;25.598;2024-01-27T13:45:35;98695.66;;;8.31;nan